Time;durP1;ratioP1;P1;durP2;ratioP2;P2;SDS_P1;SDS_P2;PMS_P1;PMS_P2;Temp;Humidity;BMP_temperature;BMP_pressure;BME280_temperature;BME280_humidity;BME280_pressure;Samples;Min_cycle;Max_cycle;Signal;HPM_P1;HPM_P2
2021/04/19 00:02:01;;;;;;;15.55;7.03;;;9.50;66.90;;;;;;6186292;23;20068;-49
2021/04/19 00:04:27;;;;;;;15.10;6.22;;;9.50;66.90;;;;;;6186265;23;20021;-49
2021/04/19 00:06:52;;;;;;;15.02;6.03;;;9.50;66.90;;;;;;6186063;23;20043;-49
2021/04/19 00:09:18;;;;;;;15.95;5.95;;;9.40;66.90;;;;;;6186136;23;20379;-49
2021/04/19 00:11:44;;;;;;;14.63;6.68;;;9.50;66.90;;;;;;6186194;23;20270;-49
2021/04/19 00:14:10;;;;;;;18.08;6.32;;;9.50;66.80;;;;;;6186286;23;20029;-49
2021/04/19 00:16:36;;;;;;;19.08;7.03;;;9.50;66.80;;;;;;6185995;23;20097;-49
2021/04/19 00:19:02;;;;;;;22.60;8.50;;;9.50;67.00;;;;;;6185704;23;20286;-49
2021/04/19 00:21:28;;;;;;;11.88;5.75;;;9.50;66.90;;;;;;6185538;23;20004;-49
2021/04/19 00:23:53;;;;;;;14.05;6.50;;;9.50;66.90;;;;;;6186068;23;20017;-49
2021/04/19 00:26:19;;;;;;;13.25;6.30;;;9.50;66.80;;;;;;6185734;23;20592;-49
2021/04/19 00:28:45;;;;;;;14.88;6.78;;;9.50;66.90;;;;;;6185439;23;20054;-49
2021/04/19 00:31:10;;;;;;;18.40;8.13;;;9.50;66.80;;;;;;6186034;23;20412;-49
2021/04/19 00:33:36;;;;;;;14.52;6.75;;;9.40;66.80;;;;;;6186057;23;20064;-49
2021/04/19 00:36:02;;;;;;;17.23;7.07;;;9.50;66.80;;;;;;6185734;23;20009;-49
2021/04/19 00:38:28;;;;;;;14.10;6.57;;;9.50;66.90;;;;;;6185787;23;20004;-49
2021/04/19 00:40:55;;;;;;;17.00;7.38;;;9.40;66.80;;;;;;6185560;23;20356;-49
2021/04/19 00:43:21;;;;;;;19.85;7.70;;;9.50;66.80;;;;;;6185603;23;20467;-49
2021/04/19 00:45:49;;;;;;;20.20;6.95;;;9.40;66.80;;;;;;6185484;23;20036;-49
2021/04/19 00:48:16;;;;;;;17.10;7.13;;;9.50;66.90;;;;;;6185880;23;20001;-50
2021/04/19 00:50:41;;;;;;;15.43;6.05;;;9.50;66.80;;;;;;6185192;23;20308;-49
2021/04/19 00:53:07;;;;;;;14.43;7.53;;;9.50;66.80;;;;;;6185588;23;20033;-49
2021/04/19 00:55:33;;;;;;;27.65;7.88;;;9.50;66.80;;;;;;6185684;23;20005;-49
2021/04/19 00:57:59;;;;;;;17.92;6.30;;;9.50;66.80;;;;;;6185946;23;20009;-49
2021/04/19 01:00:28;;;;;;;21.38;7.38;;;9.50;66.80;;;;;;6185466;23;19997;-49
2021/04/19 01:02:55;;;;;;;15.88;7.05;;;9.40;66.80;;;;;;6185405;23;20335;-49
2021/04/19 01:05:38;;;;;;;19.83;6.47;;;9.40;66.70;;;;;;6185242;23;20013;-49
2021/04/19 01:08:06;;;;;;;15.68;7.20;;;9.40;66.70;;;;;;6186112;23;20412;-49
2021/04/19 01:10:32;;;;;;;15.95;7.53;;;9.40;66.70;;;;;;6185062;23;20435;-49
2021/04/19 01:12:57;;;;;;;20.98;7.97;;;9.50;66.80;;;;;;6185423;23;20009;-49
2021/04/19 01:15:23;;;;;;;18.88;7.35;;;9.40;66.70;;;;;;6185424;23;20009;-50
2021/04/19 01:17:49;;;;;;;17.45;7.13;;;9.50;66.80;;;;;;6185846;23;20197;-50
2021/04/19 01:20:18;;;;;;;13.90;6.07;;;9.40;66.80;;;;;;6184983;23;20480;-49
2021/04/19 01:22:45;;;;;;;15.98;7.15;;;9.40;66.70;;;;;;6185666;23;20322;-49
2021/04/19 01:25:23;;;;;;;12.55;6.82;;;9.40;66.80;;;;;;6185642;23;20018;-49
2021/04/19 01:27:50;;;;;;;11.73;5.57;;;9.40;66.90;;;;;;6185428;23;20001;-49
2021/04/19 01:30:18;;;;;;;14.60;5.75;;;9.50;66.80;;;;;;6185536;23;20005;-49
2021/04/19 01:32:44;;;;;;;14.75;6.43;;;9.40;66.80;;;;;;6185360;23;20004;-49
2021/04/19 01:35:11;;;;;;;14.05;5.78;;;9.50;66.80;;;;;;6185348;23;20423;-49
2021/04/19 01:37:38;;;;;;;14.25;6.70;;;9.40;66.70;;;;;;6185051;23;20001;-49
2021/04/19 01:40:05;;;;;;;15.38;6.18;;;9.50;66.80;;;;;;6185335;23;20032;-49
2021/04/19 01:42:31;;;;;;;15.90;6.78;;;9.40;66.70;;;;;;6184851;23;20001;-49
2021/04/19 01:44:56;;;;;;;13.45;5.93;;;9.40;66.70;;;;;;6185424;23;20028;-49
2021/04/19 01:47:22;;;;;;;16.60;7.65;;;9.40;66.70;;;;;;6186214;23;20012;-49
2021/04/19 01:49:48;;;;;;;20.40;6.70;;;9.50;66.70;;;;;;6186554;23;20092;-49
2021/04/19 01:52:13;;;;;;;16.08;6.63;;;9.40;66.70;;;;;;6187374;23;20005;-49
2021/04/19 01:54:39;;;;;;;15.75;7.80;;;9.40;66.70;;;;;;6187485;23;20008;-49
2021/04/19 01:57:05;;;;;;;17.60;7.22;;;9.40;66.70;;;;;;6187220;23;20293;-49
2021/04/19 01:59:31;;;;;;;20.00;7.53;;;9.40;66.70;;;;;;6187153;23;20076;-49
2021/04/19 02:02:23;;;;;;;12.90;6.95;;;9.40;66.70;;;;;;6187078;23;20460;-49
2021/04/19 02:05:14;;;;;;;13.00;6.45;;;9.40;66.70;;;;;;6187467;23;20140;-49
2021/04/19 02:08:17;;;;;;;16.77;7.40;;;9.40;66.70;;;;;;6187299;23;20023;-49
2021/04/19 02:10:55;;;;;;;16.92;7.22;;;9.40;66.70;;;;;;6186862;23;20461;-49
2021/04/19 02:13:44;;;;;;;19.73;7.13;;;9.40;66.70;;;;;;6187210;23;20037;-49
2021/04/19 02:16:19;;;;;;;22.33;6.80;;;9.40;66.70;;;;;;6187044;23;20005;-49
2021/04/19 02:18:58;;;;;;;15.48;7.13;;;9.40;66.70;;;;;;6186864;23;20001;-50
2021/04/19 02:21:45;;;;;;;14.68;6.55;;;9.40;66.70;;;;;;6187029;23;20009;-49
2021/04/19 02:24:15;;;;;;;15.50;7.07;;;9.40;66.70;;;;;;6187289;23;20096;-49
2021/04/19 02:26:48;;;;;;;17.48;6.55;;;9.40;66.70;;;;;;6187188;23;20035;-49
2021/04/19 02:29:23;;;;;;;14.15;6.45;;;9.40;66.70;;;;;;6187097;23;20104;-49
2021/04/19 02:31:55;;;;;;;16.63;6.10;;;9.40;66.70;;;;;;6186521;23;20315;-49
2021/04/19 02:34:23;;;;;;;16.90;5.78;;;9.40;66.70;;;;;;6187233;23;20032;-49
2021/04/19 02:36:52;;;;;;;14.95;5.90;;;9.40;66.80;;;;;;6186670;23;20008;-49
2021/04/19 02:39:18;;;;;;;31.00;7.30;;;9.40;66.70;;;;;;6186898;23;20040;-49
2021/04/19 02:41:48;;;;;;;14.65;6.28;;;9.40;66.70;;;;;;6186733;23;20084;-49
2021/04/19 02:44:16;;;;;;;14.52;7.35;;;9.50;66.80;;;;;;6182733;23;20009;-49
2021/04/19 02:46:43;;;;;;;12.90;6.85;;;9.40;66.70;;;;;;6187182;23;20395;-49
2021/04/19 02:49:09;;;;;;;21.60;6.13;;;9.40;66.70;;;;;;6186156;23;20088;-49
2021/04/19 02:51:38;;;;;;;18.25;6.95;;;9.40;66.70;;;;;;6187158;23;20063;-49
2021/04/19 02:54:04;;;;;;;15.70;6.50;;;9.40;66.70;;;;;;6186825;23;20074;-49
2021/04/19 02:56:33;;;;;;;25.60;7.90;;;9.40;66.70;;;;;;6187071;23;20001;-49
2021/04/19 02:59:04;;;;;;;13.55;6.20;;;9.40;66.70;;;;;;6186462;23;20005;-49
2021/04/19 03:01:31;;;;;;;;;;;9.40;66.70;;;;;;6187013;23;20305;-49
2021/04/19 03:04:06;;;;;;;17.13;6.55;;;9.40;66.60;;;;;;6186113;23;19912;-49
2021/04/19 03:06:34;;;;;;;13.48;5.70;;;9.40;66.60;;;;;;6186986;23;20005;-49
2021/04/19 03:09:03;;;;;;;13.93;6.88;;;9.40;66.70;;;;;;6209724;23;20009;-49
2021/04/19 03:11:34;;;;;;;22.52;6.88;;;9.40;66.70;;;;;;6186825;23;20076;-49
2021/04/19 03:14:03;;;;;;;17.65;7.28;;;9.40;66.70;;;;;;6186175;23;20439;-49
2021/04/19 03:16:31;;;;;;;17.30;6.85;;;9.40;66.70;;;;;;6186816;23;20001;-49
2021/04/19 03:18:59;;;;;;;19.02;7.25;;;9.40;66.70;;;;;;6186111;23;20005;-49
2021/04/19 03:21:26;;;;;;;14.25;6.78;;;9.40;66.70;;;;;;6186862;23;20001;-49
2021/04/19 03:23:55;;;;;;;16.70;6.53;;;9.40;66.60;;;;;;6186094;23;20005;-49
2021/04/19 03:26:24;;;;;;;12.00;5.75;;;9.40;66.70;;;;;;6186801;23;20001;-49
2021/04/19 03:28:51;;;;;;;16.25;7.18;;;9.40;66.60;;;;;;6185680;23;20044;-49
2021/04/19 03:31:31;;;;;;;14.00;6.05;;;9.50;66.70;;;;;;6186834;23;19997;-49
2021/04/19 03:34:01;;;;;;;15.25;6.45;;;9.40;66.70;;;;;;6186257;23;20001;-49
2021/04/19 03:36:29;;;;;;;15.03;6.40;;;9.40;66.70;;;;;;6186379;23;20005;-49
2021/04/19 03:38:56;;;;;;;11.30;5.60;;;9.40;66.70;;;;;;6186039;23;20131;-49
2021/04/19 03:41:22;;;;;;;14.45;7.03;;;9.40;66.70;;;;;;6186898;23;20009;-49
2021/04/19 03:43:56;;;;;;;14.30;5.95;;;9.40;66.70;;;;;;6186107;23;20013;-49
2021/04/19 03:46:23;;;;;;;17.48;6.43;;;9.50;66.70;;;;;;6186404;23;20081;-49
2021/04/19 03:48:55;;;;;;;15.05;6.72;;;9.40;66.70;;;;;;6186065;23;20012;-49
2021/04/19 03:51:21;;;;;;;13.95;5.30;;;9.50;66.70;;;;;;6186233;23;19997;-49
2021/04/19 03:53:49;;;;;;;16.05;7.20;;;9.40;66.70;;;;;;6186367;23;20011;-49
2021/04/19 03:56:17;;;;;;;14.90;7.43;;;9.40;66.70;;;;;;6186184;23;20001;-49
2021/04/19 03:58:46;;;;;;;16.15;6.18;;;9.50;66.70;;;;;;6185946;23;20005;-49
2021/04/19 04:01:13;;;;;;;15.32;6.18;;;9.40;66.70;;;;;;6185954;23;19997;-49
2021/04/19 04:03:41;;;;;;;13.32;6.40;;;9.40;66.70;;;;;;6186012;23;20013;-49
2021/04/19 04:06:09;;;;;;;12.63;6.05;;;9.40;66.70;;;;;;6185711;23;20017;-49
2021/04/19 04:08:35;;;;;;;14.00;6.65;;;9.40;66.70;;;;;;6185538;23;20428;-49
2021/04/19 04:11:02;;;;;;;13.15;6.22;;;9.40;66.70;;;;;;6185486;23;20005;-49
2021/04/19 04:13:29;;;;;;;13.55;6.95;;;9.50;66.80;;;;;;6186136;23;20033;-49
2021/04/19 04:15:58;;;;;;;19.35;7.05;;;9.50;66.70;;;;;;6186166;23;20076;-50
2021/04/19 04:18:24;;;;;;;20.08;7.63;;;9.50;66.80;;;;;;6186168;23;20009;-49
2021/04/19 04:20:50;;;;;;;17.10;7.57;;;9.40;66.70;;;;;;6185449;23;20013;-49
2021/04/19 04:23:17;;;;;;;11.43;6.20;;;9.40;66.70;;;;;;6186172;23;20016;-49
2021/04/19 04:25:45;;;;;;;19.80;6.43;;;9.40;66.70;;;;;;6185091;23;20032;-49
2021/04/19 04:28:11;;;;;;;11.43;5.35;;;9.40;66.70;;;;;;6185231;23;20274;-49
2021/04/19 04:30:37;;;;;;;17.75;8.00;;;9.40;66.70;;;;;;6184941;23;20011;-49
2021/04/19 04:33:07;;;;;;;21.70;7.25;;;9.40;66.70;;;;;;6185446;23;20009;-49
2021/04/19 04:35:34;;;;;;;17.30;6.85;;;9.40;66.70;;;;;;6185295;23;20426;-49
2021/04/19 04:38:00;;;;;;;18.83;7.10;;;9.40;66.70;;;;;;6184966;23;20389;-49
2021/04/19 04:40:27;;;;;;;21.50;7.55;;;9.40;66.70;;;;;;6185255;23;20009;-49
2021/04/19 04:42:59;;;;;;;18.65;6.93;;;9.40;66.70;;;;;;6185632;23;20008;-49
2021/04/19 04:45:26;;;;;;;13.15;6.28;;;9.40;66.80;;;;;;6185430;23;20009;-49
2021/04/19 04:48:04;;;;;;;14.15;6.95;;;9.40;66.80;;;;;;6185858;23;20032;-49
2021/04/19 04:50:48;;;;;;;20.33;6.90;;;9.40;66.70;;;;;;6185427;23;20119;-49
2021/04/19 04:53:19;;;;;;;16.83;7.43;;;9.40;66.70;;;;;;6185842;23;20466;-49
2021/04/19 04:55:48;;;;;;;13.07;6.68;;;9.40;66.80;;;;;;6185522;23;20001;-49
2021/04/19 04:58:14;;;;;;;16.70;7.68;;;9.40;66.70;;;;;;6185514;23;20012;-49
2021/04/19 05:00:41;;;;;;;13.60;6.60;;;9.50;66.70;;;;;;6185785;23;20001;-49
2021/04/19 05:03:09;;;;;;;18.13;7.60;;;9.40;66.70;;;;;;6185875;23;20035;-49
2021/04/19 05:05:35;;;;;;;14.90;7.35;;;9.40;66.70;;;;;;6185856;23;20020;-49
2021/04/19 05:08:02;;;;;;;13.27;6.38;;;9.50;66.70;;;;;;6185954;23;20009;-49
2021/04/19 05:10:28;;;;;;;21.23;6.53;;;9.40;66.70;;;;;;6185328;23;20012;-49
2021/04/19 05:12:54;;;;;;;16.25;6.80;;;9.40;66.70;;;;;;6185632;23;20084;-49
2021/04/19 05:15:19;;;;;;;14.88;6.15;;;9.40;66.70;;;;;;6185758;23;20039;-49
2021/04/19 05:17:46;;;;;;;13.32;5.75;;;9.40;66.70;;;;;;6185816;23;20009;-49
2021/04/19 05:20:13;;;;;;;16.15;6.28;;;9.50;66.80;;;;;;6184818;23;20040;-49
2021/04/19 05:22:41;;;;;;;16.10;6.78;;;9.40;66.70;;;;;;6185733;23;19997;-48
2021/04/19 05:25:07;;;;;;;16.05;6.63;;;9.40;66.90;;;;;;6187602;23;20017;-49
2021/04/19 05:27:34;;;;;;;12.57;6.20;;;9.40;66.80;;;;;;6187494;23;20001;-49
2021/04/19 05:30:00;;;;;;;11.75;6.68;;;9.40;66.70;;;;;;6187272;23;20005;-49
2021/04/19 05:32:29;;;;;;;16.25;7.55;;;9.40;66.70;;;;;;6187896;23;20032;-49
2021/04/19 05:34:56;;;;;;;12.98;6.78;;;9.40;66.60;;;;;;6187625;23;20001;-49
2021/04/19 05:37:23;;;;;;;15.82;6.28;;;9.40;66.60;;;;;;6187733;23;20005;-49
2021/04/19 05:39:49;;;;;;;14.27;7.07;;;9.40;66.60;;;;;;6187388;23;20016;-48
2021/04/19 05:42:15;;;;;;;17.25;6.97;;;9.40;66.60;;;;;;6187585;23;20005;-49
2021/04/19 05:44:42;;;;;;;18.88;8.60;;;9.50;66.60;;;;;;6187413;23;20108;-49
2021/04/19 05:47:12;;;;;;;15.50;8.20;;;9.40;66.50;;;;;;6187652;23;20009;-48
2021/04/19 05:49:38;;;;;;;18.05;7.03;;;9.50;66.60;;;;;;6186959;23;20408;-48
2021/04/19 05:52:06;;;;;;;22.20;8.52;;;9.50;66.60;;;;;;6187489;23;20008;-49
2021/04/19 05:54:34;;;;;;;20.48;8.18;;;9.50;66.60;;;;;;6187308;23;20015;-49
2021/04/19 05:57:39;;;;;;;20.30;8.52;;;9.50;66.50;;;;;;6187171;23;20001;-49
2021/04/19 06:00:18;;;;;;;14.07;6.68;;;9.50;66.50;;;;;;6187494;23;20001;-49
2021/04/19 06:03:05;;;;;;;12.50;6.28;;;9.50;66.50;;;;;;6187211;23;20430;-49
2021/04/19 06:05:34;;;;;;;17.83;6.30;;;9.50;66.50;;;;;;6186943;23;20411;-49
2021/04/19 06:08:08;;;;;;;16.00;6.50;;;9.50;66.50;;;;;;6187592;23;20001;-48
2021/04/19 06:10:44;;;;;;;23.13;7.03;;;9.50;66.50;;;;;;6186585;23;20309;-49
2021/04/19 06:13:13;;;;;;;13.93;7.07;;;9.50;66.50;;;;;;6187453;23;20031;-48
2021/04/19 06:15:40;;;;;;;11.75;6.57;;;9.50;66.50;;;;;;6186733;23;20400;-48
2021/04/19 06:18:08;;;;;;;17.95;7.63;;;9.50;66.60;;;;;;6187271;23;20009;-49
2021/04/19 06:20:34;;;;;;;16.98;7.00;;;9.50;66.50;;;;;;6186382;23;20005;-49
2021/04/19 06:23:00;;;;;;;16.65;8.15;;;9.50;66.60;;;;;;6187380;23;20009;-48
2021/04/19 06:25:27;;;;;;;21.05;9.65;;;9.50;66.50;;;;;;6187107;23;20427;-49
2021/04/19 06:28:04;;;;;;;18.38;8.85;;;9.50;66.50;;;;;;6186392;23;20432;-48
2021/04/19 06:30:40;;;;;;;15.82;7.20;;;9.50;66.50;;;;;;6186972;23;20016;-49
2021/04/19 06:33:07;;;;;;;14.82;7.47;;;9.50;66.50;;;;;;6187086;23;20016;-49
2021/04/19 06:35:33;;;;;;;15.18;7.28;;;9.60;66.50;;;;;;6187346;23;20036;-49
2021/04/19 06:37:59;;;;;;;19.73;7.32;;;9.50;66.50;;;;;;6186835;23;20076;-49
2021/04/19 06:40:26;;;;;;;20.77;8.55;;;9.60;66.50;;;;;;6186715;23;20345;-48
2021/04/19 06:42:57;;;;;;;15.68;7.57;;;9.60;66.60;;;;;;6186893;23;20002;-48
2021/04/19 06:45:23;;;;;;;19.83;7.80;;;9.60;66.50;;;;;;6187147;23;20009;-49
2021/04/19 06:47:50;;;;;;;20.48;7.60;;;9.60;66.50;;;;;;6187026;23;20009;-49
2021/04/19 06:50:16;;;;;;;14.65;6.88;;;9.60;66.60;;;;;;6186879;23;20012;-49
2021/04/19 06:52:48;;;;;;;15.90;6.82;;;9.60;66.50;;;;;;6186839;23;20001;-48
2021/04/19 06:55:16;;;;;;;20.17;8.90;;;9.60;66.50;;;;;;6186694;23;20015;-48
2021/04/19 06:57:48;;;;;;;14.50;6.18;;;9.60;66.50;;;;;;6186927;23;20001;-49
2021/04/19 07:00:14;;;;;;;25.10;8.38;;;9.60;66.50;;;;;;6186688;23;20012;-49
2021/04/19 07:02:54;;;;;;;18.20;8.32;;;9.60;66.50;;;;;;6186435;23;20282;-49
2021/04/19 07:05:23;;;;;;;22.47;8.80;;;9.60;66.40;;;;;;6186635;23;20281;-49
2021/04/19 07:07:53;;;;;;;18.42;6.63;;;9.60;66.40;;;;;;6186222;23;20016;-49
2021/04/19 07:10:19;;;;;;;16.17;7.90;;;9.60;66.50;;;;;;6186510;23;20052;-48
2021/04/19 07:12:46;;;;;;;18.73;7.85;;;9.60;66.40;;;;;;6186725;23;20001;-49
2021/04/19 07:15:13;;;;;;;15.73;7.70;;;9.60;66.40;;;;;;6186581;23;20427;-48
2021/04/19 07:17:40;;;;;;;20.00;8.73;;;9.60;66.40;;;;;;6186492;23;20059;-49
2021/04/19 07:20:06;;;;;;;16.55;7.53;;;9.60;66.50;;;;;;6185727;23;20056;-49
2021/04/19 07:22:32;;;;;;;13.45;6.38;;;9.60;66.50;;;;;;6186583;23;20008;-48
2021/04/19 07:24:59;;;;;;;9.70;5.45;;;9.60;66.50;;;;;;6186831;23;20282;-49
2021/04/19 07:27:25;;;;;;;16.27;7.07;;;9.70;66.60;;;;;;6186342;23;20005;-49
2021/04/19 07:29:51;;;;;;;15.25;6.00;;;9.70;66.60;;;;;;6186052;23;20282;-48
2021/04/19 07:32:16;;;;;;;25.55;8.13;;;9.70;66.60;;;;;;6186285;23;20016;-49
2021/04/19 07:34:55;;;;;;;11.65;6.05;;;9.70;66.50;;;;;;6186389;23;20397;-48
2021/04/19 07:37:21;;;;;;;16.25;7.75;;;9.70;66.60;;;;;;6186333;23;20001;-49
2021/04/19 07:39:47;;;;;;;19.00;6.00;;;9.70;66.60;;;;;;6186362;23;20012;-49
2021/04/19 07:42:12;;;;;;;17.00;7.32;;;9.70;66.60;;;;;;6185955;23;20409;-49
2021/04/19 07:44:55;;;;;;;16.23;7.65;;;9.70;66.60;;;;;;6186156;23;20017;-48
2021/04/19 07:47:41;;;;;;;23.45;8.30;;;9.80;66.60;;;;;;6186395;23;20017;-49
2021/04/19 07:50:18;;;;;;;19.73;7.53;;;9.80;66.60;;;;;;6186275;23;20009;-49
2021/04/19 07:52:57;;;;;;;17.45;7.28;;;9.80;66.70;;;;;;6185947;23;20005;-49
2021/04/19 07:55:26;;;;;;;21.23;8.30;;;9.80;66.60;;;;;;6186179;23;20333;-49
2021/04/19 07:57:52;;;;;;;12.70;5.70;;;9.90;66.70;;;;;;6185893;23;20072;-49
2021/04/19 08:00:32;;;;;;;13.25;6.63;;;9.90;66.60;;;;;;6185825;23;20001;-49
2021/04/19 08:02:58;;;;;;;10.43;6.50;;;9.90;66.70;;;;;;6185708;23;20012;-48
2021/04/19 08:05:55;;;;;;;20.98;7.82;;;9.90;66.60;;;;;;6186146;23;20009;-49
2021/04/19 08:08:35;;;;;;;14.85;7.40;;;9.90;66.70;;;;;;6186206;23;20001;-49
2021/04/19 08:11:11;;;;;;;14.57;7.03;;;9.90;66.70;;;;;;6186453;23;20305;-49
2021/04/19 08:13:37;;;;;;;17.42;7.22;;;9.90;66.70;;;;;;6185952;23;20012;-49
2021/04/19 08:16:17;;;;;;;12.27;6.43;;;9.90;66.60;;;;;;6186256;23;20084;-49
2021/04/19 08:18:44;;;;;;;9.50;5.55;;;10.00;66.60;;;;;;6185699;23;20102;-49
2021/04/19 08:21:11;;;;;;;21.98;7.10;;;10.00;66.60;;;;;;6185845;23;20017;-49
2021/04/19 08:23:39;;;;;;;16.40;5.78;;;10.00;66.70;;;;;;6185914;23;20067;-49
2021/04/19 08:26:05;;;;;;;10.07;5.65;;;10.00;66.60;;;;;;6186110;23;20001;-49
2021/04/19 08:28:42;;;;;;;15.32;6.15;;;10.00;66.70;;;;;;6185850;23;20378;-48
2021/04/19 08:31:09;;;;;;;6.55;4.45;;;10.00;66.80;;;;;;6186243;23;20028;-49
2021/04/19 08:33:36;;;;;;;23.33;6.88;;;10.00;66.80;;;;;;6186075;23;20067;-49
2021/04/19 08:36:03;;;;;;;14.20;6.00;;;10.00;66.80;;;;;;6186019;23;20008;-49
2021/04/19 08:38:31;;;;;;;19.23;5.65;;;10.10;67.00;;;;;;6185530;23;20087;-49
2021/04/19 08:40:57;;;;;;;17.27;6.80;;;10.10;66.80;;;;;;6186236;23;20008;-49
2021/04/19 08:43:26;;;;;;;11.35;4.18;;;10.10;66.80;;;;;;6185255;23;20449;-49
2021/04/19 08:45:52;;;;;;;11.80;4.35;;;10.10;66.80;;;;;;6185516;23;20009;-49
2021/04/19 08:48:17;;;;;;;3.03;2.72;;;10.10;67.00;;;;;;6185222;23;20009;-49
2021/04/19 08:50:46;;;;;;;9.20;4.38;;;10.10;66.90;;;;;;6185638;23;20012;-49
2021/04/19 08:53:15;;;;;;;11.18;4.85;;;10.10;67.10;;;;;;6185504;23;20007;-49
2021/04/19 08:55:44;;;;;;;20.50;7.53;;;10.10;67.20;;;;;;6185737;23;20288;-48
2021/04/19 08:58:13;;;;;;;14.68;5.90;;;10.20;67.20;;;;;;6185378;23;20005;-48
2021/04/19 09:00:52;;;;;;;17.55;7.10;;;10.10;67.20;;;;;;6185487;23;20055;-49
2021/04/19 09:03:20;;;;;;;9.35;4.75;;;10.10;67.20;;;;;;6185804;23;20016;-49
2021/04/19 09:05:47;;;;;;;13.45;4.50;;;10.20;67.30;;;;;;6185580;23;20087;-48
2021/04/19 09:08:18;;;;;;;7.45;4.10;;;10.20;67.30;;;;;;6185369;23;20056;-48
2021/04/19 09:11:10;;;;;;;5.57;2.08;;;10.20;67.30;;;;;;6185811;23;20009;-49
2021/04/19 09:13:39;;;;;;;9.60;4.50;;;10.20;67.20;;;;;;6185811;23;20001;-48
2021/04/19 09:16:18;;;;;;;9.10;4.68;;;10.20;67.10;;;;;;6185750;23;20012;-49
2021/04/19 09:18:54;;;;;;;16.50;7.18;;;10.20;67.20;;;;;;6185064;23;20052;-49
2021/04/19 09:21:51;;;;;;;9.88;5.10;;;10.20;67.20;;;;;;6185985;23;20143;-49
2021/04/19 09:24:22;;;;;;;15.25;5.13;;;10.30;67.20;;;;;;6185450;23;20012;-49
2021/04/19 09:26:54;;;;;;;16.38;7.07;;;10.30;67.40;;;;;;6185837;23;20028;-49
2021/04/19 09:29:25;;;;;;;2.40;1.20;;;10.30;67.30;;;;;;6184904;23;20144;-48
2021/04/19 09:31:59;;;;;;;14.75;4.82;;;10.30;67.30;;;;;;6185879;23;20001;-49
2021/04/19 09:34:52;;;;;;;7.38;4.20;;;10.30;67.20;;;;;;6185326;23;20004;-49
2021/04/19 09:37:43;;;;;;;17.75;7.75;;;10.30;67.20;;;;;;6185434;23;20322;-49
2021/04/19 09:40:23;;;;;;;3.58;2.15;;;10.30;67.00;;;;;;6184965;23;20304;-49
2021/04/19 09:42:55;;;;;;;4.13;2.55;;;10.40;67.10;;;;;;6185732;23;20041;-48
2021/04/19 09:45:44;;;;;;;4.53;2.13;;;10.40;67.00;;;;;;6185462;23;20009;-49
2021/04/19 09:48:39;;;;;;;9.70;4.80;;;10.40;66.90;;;;;;6185126;23;20016;-49
2021/04/19 09:51:16;;;;;;;5.15;2.35;;;10.40;66.70;;;;;;6172458;23;20002;-49
2021/04/19 09:53:51;;;;;;;8.15;4.18;;;10.50;66.70;;;;;;6185547;23;20048;-49
2021/04/19 09:56:21;;;;;;;4.65;3.78;;;10.50;66.60;;;;;;6185377;23;20397;-49
2021/04/19 09:58:47;;;;;;;9.52;5.07;;;10.50;66.40;;;;;;6185105;23;20001;-49
2021/04/19 10:01:13;;;;;;;13.25;6.13;;;10.50;66.30;;;;;;6185719;23;20012;-49
2021/04/19 10:03:39;;;;;;;11.68;4.90;;;10.50;66.20;;;;;;6185564;23;20017;-48
2021/04/19 10:06:05;;;;;;;6.45;3.33;;;10.50;66.10;;;;;;6185664;23;20001;-49
2021/04/19 10:08:39;;;;;;;16.77;6.55;;;10.60;66.10;;;;;;6185219;23;20523;-48
2021/04/19 10:11:05;;;;;;;19.95;8.05;;;10.60;65.90;;;;;;6187031;23;20341;-48
2021/04/19 10:13:37;;;;;;;15.70;6.68;;;10.60;65.80;;;;;;6187041;23;20004;-49
2021/04/19 10:16:11;;;;;;;15.68;6.75;;;10.60;65.70;;;;;;6187269;23;20013;-49
2021/04/19 10:18:39;;;;;;;15.32;6.18;;;10.60;65.60;;;;;;6186846;23;20001;-50
2021/04/19 10:21:06;;;;;;;20.58;7.13;;;10.60;65.50;;;;;;6187345;23;20011;-48
2021/04/19 10:23:39;;;;;;;22.58;9.00;;;10.70;65.40;;;;;;6186423;23;20409;-49
2021/04/19 10:26:05;;;;;;;19.95;7.03;;;10.70;65.50;;;;;;6187160;23;20005;-49
2021/04/19 10:28:35;;;;;;;8.32;3.63;;;10.70;65.50;;;;;;6186830;23;20007;-48
2021/04/19 10:31:05;;;;;;;16.63;7.18;;;10.70;65.60;;;;;;6187258;23;20005;-49
2021/04/19 10:33:31;;;;;;;25.33;9.60;;;10.70;65.40;;;;;;6186773;23;20024;-49
2021/04/19 10:35:57;;;;;;;13.45;5.55;;;10.80;65.40;;;;;;6186582;23;20357;-48
2021/04/19 10:38:27;;;;;;;13.38;7.03;;;10.80;65.50;;;;;;6186660;23;20001;-49
2021/04/19 10:41:00;;;;;;;14.70;6.30;;;10.80;65.60;;;;;;6187274;23;20012;-49
2021/04/19 10:43:26;;;;;;;15.40;7.15;;;10.90;65.60;;;;;;6186883;23;20058;-48
2021/04/19 10:45:51;;;;;;;17.60;7.68;;;10.90;65.60;;;;;;6187214;23;20043;-49
2021/04/19 10:48:29;;;;;;;1.33;0.88;;;10.90;65.40;;;;;;6187360;23;20009;-49
2021/04/19 10:50:59;;;;;;;10.05;5.25;;;10.90;64.90;;;;;;6187198;23;20036;-48
2021/04/19 10:53:38;;;;;;;15.57;7.22;;;10.90;64.90;;;;;;6187024;23;20012;-48
2021/04/19 10:56:04;;;;;;;14.15;7.07;;;10.90;65.00;;;;;;6187091;23;20029;-48
2021/04/19 10:58:35;;;;;;;19.27;7.82;;;10.90;65.00;;;;;;6186803;23;19997;-48
2021/04/19 11:01:01;;;;;;;15.32;7.03;;;10.90;65.10;;;;;;6186627;23;20005;-48
2021/04/19 11:03:35;;;;;;;19.45;7.82;;;10.90;65.10;;;;;;6210198;23;20012;-48
2021/04/19 11:06:05;;;;;;;21.92;9.95;;;10.90;65.10;;;;;;6187089;23;20012;-48
2021/04/19 11:09:01;;;;;;;24.98;10.02;;;10.90;65.30;;;;;;6186423;23;20001;-49
2021/04/19 11:11:35;;;;;;;24.20;9.52;;;10.80;65.50;;;;;;6183268;23;20305;-49
2021/04/19 11:14:24;;;;;;;22.45;10.20;;;10.80;65.50;;;;;;6186513;23;20009;-49
2021/04/19 11:16:53;;;;;;;24.10;8.57;;;10.80;65.60;;;;;;6186704;23;20001;-48
2021/04/19 11:19:31;;;;;;;20.83;9.10;;;10.80;65.70;;;;;;6185727;23;20017;-49
2021/04/19 11:21:57;;;;;;;17.27;8.55;;;10.80;65.80;;;;;;6186797;23;20025;-49
2021/04/19 11:24:38;;;;;;;18.55;8.65;;;10.80;65.80;;;;;;6186280;23;20084;-49
2021/04/19 11:27:04;;;;;;;;;;;10.80;65.90;;;;;;6187425;23;20102;-49
2021/04/19 11:29:41;;;;;;;20.95;9.50;;;10.80;65.90;;;;;;6186307;23;19928;-48
2021/04/19 11:32:09;;;;;;;25.05;10.73;;;10.80;66.00;;;;;;6186155;23;20417;-48
2021/04/19 11:34:36;;;;;;;24.67;10.13;;;10.80;66.10;;;;;;6186444;23;20024;-48
2021/04/19 11:37:03;;;;;;;23.92;10.23;;;10.80;66.20;;;;;;6186701;23;20020;-48
2021/04/19 11:39:36;;;;;;;18.38;8.90;;;10.80;66.20;;;;;;6186074;23;20009;-48
2021/04/19 11:42:02;;;;;;;20.13;9.50;;;10.80;66.10;;;;;;6186606;23;20016;-49
2021/04/19 11:44:47;;;;;;;24.35;10.40;;;10.80;66.10;;;;;;6185968;23;20016;-49
2021/04/19 11:47:16;;;;;;;23.85;10.32;;;10.80;66.20;;;;;;6186113;23;20347;-48
2021/04/19 11:49:41;;;;;;;29.85;10.38;;;10.80;66.20;;;;;;6186110;23;20430;-48
2021/04/19 11:52:07;;;;;;;20.77;8.38;;;10.80;66.20;;;;;;6186328;23;20113;-49
2021/04/19 11:54:33;;;;;;;25.48;8.18;;;10.80;66.30;;;;;;6186280;23;20005;-49
2021/04/19 11:56:58;;;;;;;19.45;9.07;;;10.80;66.30;;;;;;6186537;23;20064;-48
2021/04/19 11:59:24;;;;;;;15.88;7.90;;;10.80;66.30;;;;;;6185497;23;20012;-48
2021/04/19 12:01:49;;;;;;;18.48;8.40;;;10.80;66.30;;;;;;6186334;23;20033;-48
2021/04/19 12:04:15;;;;;;;16.55;7.68;;;10.80;66.30;;;;;;6185825;23;20108;-48
2021/04/19 12:06:41;;;;;;;13.55;6.72;;;10.80;66.40;;;;;;6186517;23;19997;-48
2021/04/19 12:09:07;;;;;;;13.52;7.38;;;10.80;66.30;;;;;;6186120;23;20056;-48
2021/04/19 12:11:32;;;;;;;16.27;7.20;;;10.80;66.30;;;;;;6186277;23;20037;-49
2021/04/19 12:14:01;;;;;;;18.58;7.80;;;10.80;66.30;;;;;;6185713;23;20084;-49
2021/04/19 12:16:28;;;;;;;16.30;6.97;;;10.80;66.30;;;;;;6186177;23;20039;-49
2021/04/19 12:18:54;;;;;;;17.23;7.03;;;10.80;66.30;;;;;;6185553;23;20019;-49
2021/04/19 12:21:20;;;;;;;20.15;7.22;;;10.80;66.30;;;;;;6186127;23;20084;-48
2021/04/19 12:23:46;;;;;;;14.30;6.35;;;10.80;66.30;;;;;;6185680;23;20028;-49
2021/04/19 12:26:12;;;;;;;14.13;6.55;;;10.80;66.30;;;;;;6185439;23;20005;-48
2021/04/19 12:28:37;;;;;;;12.38;6.20;;;10.80;66.20;;;;;;6185399;23;20024;-48
2021/04/19 12:31:03;;;;;;;14.40;6.60;;;10.80;66.20;;;;;;6185801;23;20009;-49
2021/04/19 12:33:29;;;;;;;14.00;7.13;;;10.80;66.10;;;;;;6185754;23;20004;-49
2021/04/19 12:35:54;;;;;;;16.55;7.07;;;10.80;66.10;;;;;;6185543;23;20001;-48
2021/04/19 12:38:20;;;;;;;31.13;8.23;;;10.80;66.10;;;;;;6185480;23;20087;-48
2021/04/19 12:40:46;;;;;;;17.17;8.05;;;10.90;66.20;;;;;;6185391;23;19997;-49
2021/04/19 12:43:12;;;;;;;19.63;9.70;;;10.80;66.10;;;;;;6185767;23;20020;-48
2021/04/19 12:45:39;;;;;;;18.00;8.82;;;10.80;66.10;;;;;;6185540;23;20425;-48
2021/04/19 12:48:09;;;;;;;22.67;9.68;;;10.90;66.20;;;;;;6186007;23;20293;-48
2021/04/19 12:50:35;;;;;;;20.77;9.10;;;10.90;66.20;;;;;;6185211;23;20371;-49
2021/04/19 12:53:02;;;;;;;19.08;9.07;;;10.90;66.10;;;;;;6185559;23;20348;-49
2021/04/19 12:55:28;;;;;;;18.55;7.15;;;10.90;66.20;;;;;;6185324;23;20051;-48
2021/04/19 12:57:55;;;;;;;19.02;7.75;;;10.90;66.20;;;;;;6185732;23;20047;-49